createdAt,value
2022-09-28T00:01:55.389Z,1.33
2022-09-28T00:04:23.181Z,0.60
2022-09-28T00:06:49.483Z,1.02
2022-09-28T00:09:16.734Z,1.08
2022-09-28T00:11:46.042Z,1.13
2022-09-28T00:14:16.196Z,0.80
2022-09-28T00:16:43.972Z,0.93
2022-09-28T00:19:11.779Z,1.00
2022-09-28T00:21:40.572Z,0.88
2022-09-28T00:24:13.184Z,1.00
2022-09-28T00:26:41.056Z,0.60
2022-09-28T00:29:16.105Z,0.90
2022-09-28T00:31:42.897Z,0.60
2022-09-28T00:34:09.371Z,0.60
2022-09-28T00:36:35.752Z,0.70
2022-09-28T00:39:08.077Z,0.90
2022-09-28T00:41:34.970Z,1.02
2022-09-28T00:44:31.225Z,0.75
2022-09-28T00:47:37.948Z,0.88
2022-09-28T00:50:14.625Z,0.52
2022-09-28T00:52:50.314Z,0.70
2022-09-28T00:55:21.777Z,0.60
2022-09-28T00:57:55.828Z,0.80
2022-09-28T01:00:22.220Z,0.90
2022-09-28T01:02:48.989Z,0.50
2022-09-28T01:08:04.240Z,0.52
2022-09-28T01:10:31.432Z,0.82
2022-09-28T01:12:59.175Z,0.80
2022-09-28T01:15:27.935Z,0.70
2022-09-28T01:18:11.609Z,0.83
2022-09-28T01:20:52.778Z,0.70
2022-09-28T01:23:28.983Z,1.00
2022-09-28T01:26:29.320Z,0.60
2022-09-28T01:29:05.511Z,0.90
2022-09-28T01:31:36.246Z,1.40
2022-09-28T01:34:14.812Z,0.93
2022-09-28T01:36:50.550Z,0.82
2022-09-28T01:39:39.975Z,0.98
2022-09-28T01:42:11.904Z,0.77
2022-09-28T01:44:43.305Z,0.97
2022-09-28T01:47:14.356Z,1.00
2022-09-28T01:49:50.602Z,0.57
2022-09-28T01:52:27.791Z,0.85
2022-09-28T01:55:09.481Z,0.80
2022-09-28T01:57:46.612Z,0.73
2022-09-28T02:00:15.600Z,0.80
2022-09-28T02:03:39.031Z,0.75
2022-09-28T02:06:24.706Z,0.73
2022-09-28T02:08:59.985Z,0.60
2022-09-28T02:11:26.418Z,0.80
2022-09-28T02:14:06.769Z,0.55
2022-09-28T02:16:44.878Z,0.75
2022-09-28T02:19:19.041Z,0.50
2022-09-28T02:22:01.102Z,0.60
2022-09-28T02:24:35.814Z,0.53
2022-09-28T02:27:12.531Z,0.80
2022-09-28T02:29:38.869Z,0.80
2022-09-28T02:32:05.483Z,1.02
2022-09-28T02:34:32.851Z,1.30
2022-09-28T02:37:00.689Z,0.97
2022-09-28T02:39:27.160Z,0.93
2022-09-28T02:42:07.864Z,1.15
2022-09-28T02:44:53.570Z,1.10
2022-09-28T02:47:44.165Z,1.52
2022-09-28T02:50:34.898Z,0.90
2022-09-28T02:53:14.429Z,0.80
2022-09-28T02:56:19.915Z,1.17
2022-09-28T02:58:55.289Z,0.90
2022-09-28T03:01:40.387Z,1.15
2022-09-28T03:04:26.227Z,1.40
2022-09-28T03:07:06.027Z,1.50
2022-09-28T03:09:44.556Z,1.30
2022-09-28T03:12:14.913Z,1.33
2022-09-28T03:14:41.348Z,1.27
2022-09-28T03:17:07.714Z,1.43
2022-09-28T03:19:34.500Z,1.35
2022-09-28T03:22:01.667Z,1.48
2022-09-28T03:24:28.029Z,1.20
2022-09-28T03:26:54.598Z,1.20
2022-09-28T03:29:20.930Z,1.10
2022-09-28T03:31:47.862Z,1.17
2022-09-28T03:34:14.387Z,0.85
2022-09-28T03:36:40.681Z,0.90
2022-09-28T03:39:07.014Z,1.17
2022-09-28T03:41:34.788Z,1.07
2022-09-28T03:44:01.235Z,1.20
2022-09-28T03:46:27.560Z,0.98
2022-09-28T03:48:57.412Z,1.00
2022-09-28T03:51:23.778Z,0.73
2022-09-28T03:53:50.088Z,0.73
2022-09-28T03:56:17.332Z,0.75
2022-09-28T03:58:43.679Z,0.82
2022-09-28T04:01:16.843Z,1.00
2022-09-28T04:03:44.685Z,0.90
2022-09-28T04:06:11.555Z,0.60
2022-09-28T04:08:38.376Z,0.43
2022-09-28T04:11:04.834Z,0.40
2022-09-28T04:13:31.766Z,0.40
2022-09-28T04:16:00.250Z,0.60
2022-09-28T04:18:26.880Z,0.40
2022-09-28T04:21:06.534Z,0.55
2022-09-28T04:23:34.591Z,0.57
2022-09-28T04:26:01.454Z,0.40
2022-09-28T04:28:46.206Z,0.50
2022-09-28T04:31:16.459Z,0.70
2022-09-28T04:33:42.966Z,1.55
2022-09-28T04:36:10.910Z,0.40
2022-09-28T04:38:52.237Z,0.47
2022-09-28T04:41:19.215Z,0.52
2022-09-28T04:43:49.499Z,0.40
2022-09-28T04:46:15.949Z,0.45
2022-09-28T04:48:42.378Z,0.50
2022-09-28T04:51:08.776Z,0.60
2022-09-28T04:53:35.411Z,0.43
2022-09-28T04:56:03.263Z,0.20
2022-09-28T04:58:30.595Z,0.30
2022-09-28T05:01:00.043Z,0.28
2022-09-28T05:03:27.416Z,0.22
2022-09-28T05:05:53.827Z,0.30
2022-09-28T05:08:20.258Z,0.33
2022-09-28T05:10:46.646Z,0.20
2022-09-28T05:13:13.959Z,0.20
2022-09-28T05:15:42.239Z,0.50
2022-09-28T05:18:08.846Z,0.35
2022-09-28T05:20:42.033Z,0.30
2022-09-28T05:23:12.663Z,0.30
2022-09-28T05:25:39.895Z,0.38
2022-09-28T05:28:07.067Z,0.30
2022-09-28T05:30:34.736Z,0.50
2022-09-28T05:33:01.367Z,0.10
2022-09-28T05:35:27.906Z,0.20
2022-09-28T05:37:54.889Z,0.10
2022-09-28T05:40:21.448Z,0.10
2022-09-28T05:42:48.157Z,0.10
2022-09-28T05:45:15.015Z,0.10
2022-09-28T05:47:43.492Z,0.10
2022-09-28T05:50:11.883Z,0.20
2022-09-28T05:52:38.771Z,0.10
2022-09-28T05:55:06.747Z,0.20
2022-09-28T05:57:33.350Z,0.10
2022-09-28T05:59:59.991Z,0.17
2022-09-28T06:02:26.411Z,0.30
2022-09-28T06:04:53.769Z,0.20
2022-09-28T06:07:21.879Z,0.10
2022-09-28T06:09:48.204Z,0.10
2022-09-28T06:12:15.939Z,0.10
2022-09-28T06:14:42.306Z,0.13
2022-09-28T06:17:08.693Z,0.20
2022-09-28T06:19:35.057Z,0.20
2022-09-28T06:22:01.354Z,0.10
2022-09-28T06:24:27.751Z,0.10
2022-09-28T06:26:54.120Z,0.10
2022-09-28T06:29:20.559Z,0.10
2022-09-28T06:31:47.237Z,0.10
2022-09-28T06:34:15.013Z,0.10
2022-09-28T06:36:41.422Z,0.13
2022-09-28T06:39:07.931Z,0.10
2022-09-28T06:41:34.356Z,0.10
2022-09-28T06:44:01.952Z,0.20
2022-09-28T06:46:28.284Z,0.10
2022-09-28T06:48:54.985Z,0.10
2022-09-28T06:51:21.778Z,0.10
2022-09-28T06:53:48.164Z,0.30
2022-09-28T06:56:14.531Z,0.10
2022-09-28T06:58:40.878Z,0.20
2022-09-28T07:01:07.254Z,0.10
2022-09-28T07:03:33.638Z,0.20
2022-09-28T07:06:00.030Z,0.10
2022-09-28T07:08:26.463Z,0.10
2022-09-28T07:10:56.823Z,0.20
2022-09-28T07:16:15.082Z,0.30
2022-09-28T07:18:42.184Z,0.32
2022-09-28T07:21:12.367Z,0.20
2022-09-28T07:23:53.504Z,0.20
2022-09-28T07:26:23.868Z,0.10
2022-09-28T07:28:50.831Z,0.20
2022-09-28T07:31:17.307Z,0.20
2022-09-28T07:33:43.640Z,0.17
2022-09-28T07:36:10.614Z,0.10
2022-09-28T07:38:38.157Z,1.13
2022-09-28T07:41:14.760Z,0.20
2022-09-28T07:43:41.595Z,0.45
2022-09-28T07:46:12.172Z,0.20
2022-09-28T07:48:40.944Z,0.20
2022-09-28T07:51:08.158Z,0.20
2022-09-28T07:53:34.859Z,0.20
2022-09-28T07:56:13.942Z,0.10
2022-09-28T07:58:41.098Z,0.20
2022-09-28T08:01:10.495Z,0.20
2022-09-28T08:03:37.817Z,0.20
2022-09-28T08:06:07.449Z,0.20
2022-09-28T08:08:35.629Z,0.15
2022-09-28T08:11:02.612Z,0.30
2022-09-28T08:13:29.489Z,0.10
2022-09-28T08:16:00.766Z,0.10
2022-09-28T08:18:27.110Z,0.20
2022-09-28T08:21:14.141Z,0.25
2022-09-28T08:23:40.839Z,0.30
2022-09-28T08:26:09.323Z,0.57
2022-09-28T08:28:39.224Z,0.52
2022-09-28T08:31:07.276Z,0.25
2022-09-28T08:33:34.521Z,0.20
2022-09-28T08:36:02.391Z,0.20
2022-09-28T08:38:30.924Z,0.27
2022-09-28T08:41:15.481Z,0.20
2022-09-28T08:43:54.141Z,0.20
2022-09-28T08:46:27.024Z,0.30
2022-09-28T08:49:23.822Z,0.20
2022-09-28T08:51:54.940Z,0.13
2022-09-28T08:54:31.669Z,0.20
2022-09-28T08:57:06.779Z,0.20
2022-09-28T08:59:54.107Z,0.20
2022-09-28T09:02:29.143Z,0.20
2022-09-28T09:04:57.020Z,0.10
2022-09-28T09:07:56.835Z,0.22
2022-09-28T09:10:44.451Z,0.10
2022-09-28T09:13:23.491Z,0.20
2022-09-28T09:16:00.904Z,0.20
2022-09-28T09:18:52.710Z,0.10
2022-09-28T09:21:25.093Z,0.63
2022-09-28T09:24:03.834Z,0.15
2022-09-28T09:26:39.079Z,0.10
2022-09-28T09:29:32.515Z,0.10
2022-09-28T09:32:13.155Z,0.10
2022-09-28T09:34:53.006Z,0.10
2022-09-28T09:37:25.328Z,0.73
2022-09-28T09:40:00.588Z,0.10
2022-09-28T09:42:36.856Z,0.40
2022-09-28T09:45:16.397Z,0.10
2022-09-28T09:47:58.990Z,0.10
2022-09-28T09:50:30.763Z,0.10
2022-09-28T09:53:14.917Z,0.20
2022-09-28T09:55:54.740Z,0.10
2022-09-28T09:58:34.286Z,0.07
2022-09-28T10:01:14.423Z,0.10
2022-09-28T10:03:44.450Z,0.10
2022-09-28T10:06:25.046Z,0.20
2022-09-28T10:09:16.633Z,0.10
2022-09-28T10:11:46.087Z,0.00
2022-09-28T10:14:21.435Z,0.10
2022-09-28T10:16:50.830Z,0.20
2022-09-28T10:19:20.833Z,0.10
2022-09-28T10:21:52.734Z,0.10
2022-09-28T10:24:35.545Z,0.10
2022-09-28T10:27:18.067Z,0.10
2022-09-28T10:29:55.384Z,0.10
2022-09-28T10:32:26.679Z,0.10
2022-09-28T10:35:10.790Z,0.10
2022-09-28T10:37:48.238Z,0.10
2022-09-28T10:40:50.292Z,0.00
2022-09-28T10:43:38.351Z,0.10
2022-09-28T10:46:10.389Z,0.10
2022-09-28T10:48:45.723Z,0.10
2022-09-28T10:51:12.063Z,0.10
2022-09-28T10:53:39.573Z,0.10
2022-09-28T10:56:18.744Z,0.10
2022-09-28T10:58:45.679Z,0.10
2022-09-28T11:01:14.924Z,0.10
2022-09-28T11:04:03.528Z,0.10
2022-09-28T11:06:37.974Z,0.10
2022-09-28T11:09:18.549Z,0.10
2022-09-28T11:11:45.062Z,0.10
2022-09-28T11:14:39.583Z,0.10
2022-09-28T11:17:32.461Z,0.10
2022-09-28T11:20:26.119Z,0.10
2022-09-28T11:22:58.718Z,0.20
2022-09-28T11:25:26.744Z,0.10
2022-09-28T11:27:53.008Z,0.10
2022-09-28T11:30:34.081Z,0.13
2022-09-28T11:33:10.460Z,0.10
2022-09-28T11:35:50.471Z,0.10
2022-09-28T11:38:35.652Z,0.10
2022-09-28T11:41:23.560Z,0.10
2022-09-28T11:44:29.466Z,0.20
2022-09-28T11:47:33.590Z,0.15
2022-09-28T11:50:23.548Z,0.20
2022-09-28T11:53:02.796Z,0.10
2022-09-28T11:55:35.921Z,0.30
2022-09-28T11:58:12.407Z,0.10
2022-09-28T12:00:45.866Z,0.10
2022-09-28T12:03:24.843Z,0.20
2022-09-28T12:05:59.139Z,0.10
2022-09-28T12:08:32.060Z,0.20
2022-09-28T12:11:15.529Z,0.10
2022-09-28T12:13:47.926Z,0.10
2022-09-28T12:17:04.344Z,0.10
2022-09-28T12:19:29.587Z,0.20
2022-09-28T12:22:43.063Z,0.10
2022-09-28T12:25:16.041Z,0.10
2022-09-28T12:27:51.325Z,0.10
2022-09-28T12:30:21.028Z,0.10
2022-09-28T12:32:59.533Z,0.10
2022-09-28T12:35:52.155Z,0.10
2022-09-28T12:38:28.714Z,0.00
2022-09-28T12:41:19.686Z,0.10
2022-09-28T12:44:13.709Z,0.00
2022-09-28T12:47:16.951Z,0.10
2022-09-28T12:52:52.811Z,0.10
2022-09-28T12:55:37.187Z,0.00
2022-09-28T12:58:03.498Z,0.00
2022-09-28T13:00:41.019Z,0.20
2022-09-28T13:03:34.980Z,0.10
2022-09-28T13:06:17.238Z,0.00
2022-09-28T13:09:23.775Z,0.00
2022-09-28T13:12:09.866Z,0.10
2022-09-28T13:15:02.876Z,0.10
2022-09-28T13:17:55.307Z,0.00
2022-09-28T13:20:37.679Z,0.00
2022-09-28T13:23:16.357Z,0.00
2022-09-28T13:25:50.966Z,0.08
2022-09-28T13:28:21.323Z,0.10
2022-09-28T13:30:52.672Z,0.20
2022-09-28T13:33:29.271Z,0.30
2022-09-28T13:35:56.592Z,0.10
2022-09-28T13:38:22.826Z,0.08
2022-09-28T13:41:04.230Z,0.10
2022-09-28T13:43:54.993Z,0.10
2022-09-28T13:46:33.822Z,0.00
2022-09-28T13:49:19.203Z,0.05
2022-09-28T13:52:06.590Z,0.03
2022-09-28T13:54:51.219Z,0.00
2022-09-28T13:57:37.168Z,0.00
2022-09-28T14:00:23.642Z,0.00
2022-09-28T14:03:10.459Z,0.10
2022-09-28T14:05:48.127Z,0.10
2022-09-28T14:08:28.544Z,0.00
2022-09-28T14:10:57.011Z,0.10
2022-09-28T14:13:59.350Z,0.00
2022-09-28T14:16:28.491Z,0.35
2022-09-28T14:19:00.163Z,0.00
2022-09-28T14:21:40.060Z,0.03
2022-09-28T14:24:27.330Z,0.10
2022-09-28T14:27:27.031Z,0.10
2022-09-28T14:30:06.595Z,0.00
2022-09-28T14:32:37.406Z,0.10
2022-09-28T14:35:07.371Z,0.00
2022-09-28T14:37:55.935Z,0.00
2022-09-28T14:40:49.611Z,0.00
2022-09-28T14:43:36.417Z,0.10
2022-09-28T14:46:11.711Z,0.10
2022-09-28T14:48:54.023Z,0.20
2022-09-28T14:51:26.457Z,0.00
2022-09-28T14:54:00.211Z,0.00
2022-09-28T14:56:32.572Z,0.00
2022-09-28T14:59:00.069Z,0.00
2022-09-28T15:01:26.574Z,0.00
2022-09-28T15:04:01.747Z,0.00
2022-09-28T15:06:45.561Z,0.00
2022-09-28T15:09:44.079Z,0.00
2022-09-28T15:12:10.330Z,0.05
2022-09-28T15:15:04.631Z,0.10
2022-09-28T15:17:40.081Z,1.02
2022-09-28T15:20:20.151Z,0.10
2022-09-28T15:22:48.733Z,0.10
2022-09-28T15:25:27.828Z,0.10
2022-09-28T15:28:02.264Z,0.08
2022-09-28T15:30:33.348Z,0.10
2022-09-28T15:33:19.995Z,0.10
2022-09-28T15:35:59.206Z,0.00
2022-09-28T15:38:25.654Z,0.10
2022-09-28T15:40:52.150Z,0.10
2022-09-28T15:43:30.762Z,0.10
2022-09-28T15:46:17.543Z,0.10
2022-09-28T15:48:53.123Z,0.10
2022-09-28T15:51:21.277Z,0.15
2022-09-28T15:54:02.138Z,0.00
2022-09-28T15:56:29.567Z,0.00
2022-09-28T15:59:25.228Z,0.10
2022-09-28T16:02:08.056Z,0.00
2022-09-28T16:04:38.271Z,0.00
2022-09-28T16:07:10.624Z,0.00
2022-09-28T16:09:59.958Z,0.00
2022-09-28T16:12:32.427Z,0.00
2022-09-28T16:15:07.556Z,0.00
2022-09-28T16:17:35.252Z,0.10
2022-09-28T16:20:23.176Z,0.00
2022-09-28T16:22:49.994Z,0.00
2022-09-28T16:25:24.537Z,0.00
2022-09-28T16:27:53.587Z,0.00
2022-09-28T16:30:26.449Z,0.00
2022-09-28T16:33:05.506Z,0.00
2022-09-28T16:35:49.322Z,0.00
2022-09-28T16:38:17.503Z,0.00
2022-09-28T16:40:47.817Z,0.00
2022-09-28T16:43:30.854Z,0.00
2022-09-28T16:46:02.083Z,0.10
2022-09-28T16:48:31.257Z,0.00
2022-09-28T16:50:58.442Z,0.00
2022-09-28T16:53:44.424Z,0.00
2022-09-28T16:56:12.415Z,0.08
2022-09-28T16:58:39.077Z,0.03
2022-09-28T17:01:09.479Z,0.00
2022-09-28T17:03:36.129Z,0.00
2022-09-28T17:06:06.012Z,0.10
2022-09-28T17:08:35.256Z,0.05
2022-09-28T17:11:24.285Z,0.00
2022-09-28T17:13:51.675Z,0.05
2022-09-28T17:16:32.250Z,0.00
2022-09-28T17:19:18.205Z,0.00
2022-09-28T17:21:44.792Z,0.00
2022-09-28T17:24:11.255Z,0.00
2022-09-28T17:26:38.068Z,0.10
2022-09-28T17:29:08.593Z,0.10
2022-09-28T17:31:34.890Z,0.00
2022-09-28T17:34:01.219Z,0.00
2022-09-28T17:36:27.931Z,0.10
2022-09-28T17:38:54.287Z,0.00
2022-09-28T17:41:21.178Z,0.10
2022-09-28T17:43:48.069Z,0.00
2022-09-28T17:46:32.193Z,0.00
2022-09-28T17:49:00.895Z,0.00
2022-09-28T17:51:32.334Z,0.00
2022-09-28T17:54:00.831Z,0.03
2022-09-28T17:56:32.244Z,0.00
2022-09-28T17:59:05.685Z,0.05
2022-09-28T18:01:37.018Z,0.00
2022-09-28T18:04:05.137Z,0.00
2022-09-28T18:06:35.049Z,0.10
2022-09-28T18:09:04.784Z,0.40
2022-09-28T18:11:32.979Z,7.10
2022-09-28T18:13:59.502Z,2.92
2022-09-28T18:16:28.484Z,0.50
2022-09-28T18:18:54.894Z,0.80
2022-09-28T18:21:21.281Z,0.90
2022-09-28T18:23:47.592Z,1.05
2022-09-28T18:26:15.911Z,0.50
2022-09-28T18:28:42.310Z,0.10
2022-09-28T18:31:10.896Z,0.00
2022-09-28T18:33:50.026Z,0.00
2022-09-28T18:36:16.444Z,0.00
2022-09-28T18:38:42.803Z,0.03
2022-09-28T18:41:15.400Z,0.10
2022-09-28T18:43:51.596Z,0.03
2022-09-28T18:46:18.838Z,0.10
2022-09-28T18:48:46.255Z,0.20
2022-09-28T18:51:12.715Z,1.65
2022-09-28T18:53:40.062Z,0.82
2022-09-28T18:56:12.040Z,0.30
2022-09-28T18:58:39.971Z,4.90
2022-09-28T19:04:00.265Z,1.00
2022-09-28T19:06:26.981Z,0.20
2022-09-28T19:08:55.934Z,0.30
2022-09-28T19:11:23.062Z,0.65
2022-09-28T19:13:49.381Z,1.27
2022-09-28T19:16:18.055Z,0.55
2022-09-28T19:18:44.620Z,0.90
2022-09-28T19:21:12.870Z,0.33
2022-09-28T19:23:40.583Z,0.60
2022-09-28T19:26:11.333Z,0.17
2022-09-28T19:28:37.879Z,0.32
2022-09-28T19:31:08.968Z,0.20
2022-09-28T19:33:36.573Z,0.20
2022-09-28T19:36:11.170Z,0.20
2022-09-28T19:38:39.221Z,0.20
2022-09-28T19:41:39.113Z,0.20
2022-09-28T19:44:10.792Z,0.30
2022-09-28T19:46:39.926Z,0.30
2022-09-28T19:49:12.731Z,0.73
2022-09-28T19:51:51.415Z,0.60
2022-09-28T19:54:33.135Z,0.40
2022-09-28T19:57:07.565Z,0.75
2022-09-28T19:59:35.484Z,1.00
2022-09-28T20:02:02.036Z,0.80
2022-09-28T20:04:28.832Z,1.10
2022-09-28T20:06:55.272Z,1.00
2022-09-28T20:09:21.597Z,1.17
2022-09-28T20:11:48.493Z,0.70
2022-09-28T20:14:16.144Z,1.02
2022-09-28T20:16:42.505Z,0.85
2022-09-28T20:19:08.843Z,0.70
2022-09-28T20:21:35.228Z,1.00
2022-09-28T20:24:01.713Z,0.63
2022-09-28T20:26:28.418Z,0.90
2022-09-28T20:28:54.916Z,0.60
2022-09-28T20:31:23.607Z,0.70
2022-09-28T20:33:50.989Z,1.17
2022-09-28T20:36:19.875Z,0.87
2022-09-28T20:38:50.766Z,0.80
2022-09-28T20:41:18.656Z,0.90
2022-09-28T20:43:46.741Z,0.90
2022-09-28T20:46:13.956Z,0.90
2022-09-28T20:48:40.837Z,1.13
2022-09-28T20:51:11.205Z,1.00
2022-09-28T20:53:38.897Z,1.40
2022-09-28T20:56:08.529Z,1.02
2022-09-28T20:58:34.929Z,1.27
2022-09-28T21:01:10.952Z,0.97
2022-09-28T21:03:38.343Z,1.05
2022-09-28T21:06:11.459Z,1.10
2022-09-28T21:08:38.564Z,0.80
2022-09-28T21:11:06.381Z,0.70
2022-09-28T21:13:33.331Z,0.90
2022-09-28T21:16:04.050Z,0.88
2022-09-28T21:18:30.672Z,1.20
2022-09-28T21:20:56.980Z,0.93
2022-09-28T21:23:25.055Z,0.68
2022-09-28T21:26:10.182Z,0.80
2022-09-28T21:28:37.913Z,1.02
2022-09-28T21:31:06.398Z,0.93
2022-09-28T21:33:33.339Z,1.30
2022-09-28T21:36:05.845Z,1.42
2022-09-28T21:38:32.163Z,1.40
2022-09-28T21:40:59.702Z,1.17
2022-09-28T21:43:28.713Z,1.20
2022-09-28T21:45:56.290Z,1.33
2022-09-28T21:48:24.699Z,1.30
2022-09-28T21:51:04.936Z,0.70
2022-09-28T21:53:34.090Z,0.60
2022-09-28T21:56:01.156Z,0.80
2022-09-28T21:58:29.799Z,0.98
2022-09-28T22:01:05.406Z,0.68
2022-09-28T22:03:33.414Z,1.17
2022-09-28T22:05:59.725Z,1.30
2022-09-28T22:08:26.550Z,1.13
2022-09-28T22:11:06.037Z,1.52
2022-09-28T22:13:35.254Z,1.20
2022-09-28T22:16:02.115Z,1.30
2022-09-28T22:18:30.489Z,1.20
2022-09-28T22:21:01.841Z,1.42
2022-09-28T22:23:29.068Z,0.55
2022-09-28T22:26:25.599Z,0.98
2022-09-28T22:28:56.626Z,1.00
2022-09-28T22:31:26.706Z,0.85
2022-09-28T22:33:53.742Z,1.40
2022-09-28T22:36:20.140Z,1.00
2022-09-28T22:38:47.780Z,0.73
2022-09-28T22:41:16.439Z,0.67
2022-09-28T22:43:43.460Z,1.17
2022-09-28T22:46:15.167Z,0.88
2022-09-28T22:48:44.327Z,1.08
2022-09-28T22:51:10.646Z,0.73
2022-09-28T22:53:36.987Z,0.50
2022-09-28T22:56:05.528Z,0.77
2022-09-28T22:58:36.038Z,0.90
2022-09-28T23:01:29.600Z,1.10
2022-09-28T23:03:57.572Z,1.10
2022-09-28T23:06:26.480Z,0.97
2022-09-28T23:08:53.119Z,1.27
2022-09-28T23:11:19.655Z,1.85
2022-09-28T23:13:54.452Z,1.38
2022-09-28T23:16:23.329Z,1.02
2022-09-28T23:18:49.859Z,1.20
2022-09-28T23:21:19.237Z,1.23
2022-09-28T23:23:50.591Z,0.85
2022-09-28T23:26:19.608Z,1.35
2022-09-28T23:28:46.142Z,0.80
2022-09-28T23:31:16.600Z,0.80
2022-09-28T23:33:43.106Z,0.85
2022-09-28T23:36:09.750Z,1.25
2022-09-28T23:38:36.252Z,0.80
2022-09-28T23:41:02.839Z,0.90
2022-09-28T23:43:29.211Z,1.10
2022-09-28T23:45:55.541Z,1.33
2022-09-28T23:48:21.894Z,1.27
2022-09-28T23:50:48.329Z,3.15
2022-09-28T23:53:14.877Z,2.75
2022-09-28T23:55:42.526Z,1.30
2022-09-28T23:58:09.972Z,0.40
